Time;durP1;ratioP1;P1;durP2;ratioP2;P2;SDS_P1;SDS_P2;PMS_P1;PMS_P2;Temp;Humidity;BMP_temperature;BMP_pressure;BME280_temperature;BME280_humidity;BME280_pressure;Samples;Min_cycle;Max_cycle;Signal;HPM_P1;HPM_P2
2022/01/31 00:00:58;;;;;;;15.70;7.07;;;;;;;-0.41;100.00;97092.75;4999195;28;20034;-64
2022/01/31 00:03:24;;;;;;;16.60;7.15;;;;;;;-0.57;100.00;97089.41;4993800;28;20659;-64
2022/01/31 00:05:50;;;;;;;14.25;7.28;;;;;;;-0.70;100.00;97079.31;4996298;28;20094;-65
2022/01/31 00:08:21;;;;;;;15.07;7.35;;;;;;;-0.62;100.00;97066.03;4991088;28;20046;-64
2022/01/31 00:10:47;;;;;;;12.98;6.85;;;;;;;-0.42;100.00;97056.94;4994667;28;20521;-64
2022/01/31 00:13:19;;;;;;;15.90;8.07;;;;;;;-0.28;100.00;97054.38;4990507;28;20505;-65
2022/01/31 00:15:52;;;;;;;18.10;7.88;;;;;;;-0.28;100.00;97046.31;5005607;28;20073;-67
2022/01/31 00:18:17;;;;;;;16.33;8.00;;;;;;;-0.30;100.00;97051.19;4994948;28;20041;-64
2022/01/31 00:20:42;;;;;;;18.80;7.53;;;;;;;-0.30;100.00;97037.72;5002182;28;20100;-65
2022/01/31 00:23:08;;;;;;;16.83;7.68;;;;;;;-0.22;100.00;97023.63;4996915;28;20497;-61
2022/01/31 00:25:33;;;;;;;13.15;6.88;;;;;;;-0.27;100.00;97012.91;4999923;28;20069;-64
2022/01/31 00:27:58;;;;;;;17.58;7.50;;;;;;;-0.33;100.00;96995.22;4999526;28;20121;-64
2022/01/31 00:30:24;;;;;;;20.58;7.10;;;;;;;-0.51;100.00;96994.09;4993283;28;20050;-66
2022/01/31 00:32:49;;;;;;;18.25;7.50;;;;;;;-0.61;100.00;97002.31;4996208;28;20038;-64
2022/01/31 00:35:15;;;;;;;14.45;7.63;;;;;;;-0.69;100.00;96992.16;4993221;28;20038;-66
2022/01/31 00:37:40;;;;;;;16.38;7.60;;;;;;;-0.83;100.00;96984.78;4997886;28;20045;-66
2022/01/31 00:40:08;;;;;;;19.25;7.70;;;;;;;-0.85;100.00;96962.72;4988219;28;20057;-65
2022/01/31 00:42:34;;;;;;;15.80;7.20;;;;;;;-0.93;100.00;96970.66;4997793;28;20450;-64
2022/01/31 00:48:06;;;;;;;21.50;8.75;;;;;;;-1.23;100.00;96965.28;4982939;28;20049;-65
2022/01/31 00:50:39;;;;;;;17.20;7.65;;;;;;;-1.32;100.00;96960.81;5001792;28;20457;-66
2022/01/31 00:53:05;;;;;;;18.42;7.78;;;;;;;-1.22;100.00;96952.66;4997793;28;20042;-61
2022/01/31 00:55:30;;;;;;;13.75;7.38;;;;;;;-1.12;100.00;96930.25;5002127;28;20042;-65
2022/01/31 00:57:55;;;;;;;17.25;6.55;;;;;;;-0.97;100.00;96930.88;5001532;28;20042;-64
2022/01/31 01:00:21;;;;;;;14.82;7.00;;;;;;;-0.86;100.00;96923.50;5000515;28;20390;-65
2022/01/31 01:02:47;;;;;;;14.32;7.10;;;;;;;-0.81;100.00;96928.81;5005290;28;20128;-64
2022/01/31 01:05:13;;;;;;;18.13;7.95;;;;;;;-0.81;100.00;96933.38;4980797;28;20137;-64
2022/01/31 01:07:45;;;;;;;15.57;6.65;;;;;;;-0.67;100.00;96936.19;4989206;28;20044;-67
2022/01/31 01:10:11;;;;;;;13.40;7.47;;;;;;;-0.58;100.00;96945.22;4994918;28;20045;-67
2022/01/31 01:12:36;;;;;;;13.82;6.75;;;;;;;-0.56;100.00;96942.22;5005782;28;20448;-65
2022/01/31 01:15:03;;;;;;;16.67;7.05;;;;;;;-0.42;100.00;96922.38;5002483;28;20046;-64
2022/01/31 01:17:28;;;;;;;15.52;6.50;;;;;;;-0.33;100.00;96936.00;5003544;28;20050;-67
2022/01/31 01:19:54;;;;;;;16.88;6.72;;;;;;;-0.29;100.00;96930.84;5006377;28;20505;-66
2022/01/31 01:22:19;;;;;;;14.63;6.88;;;;;;;-0.36;100.00;96928.53;4998334;28;20064;-65
2022/01/31 01:24:47;;;;;;;14.15;6.30;;;;;;;-0.48;100.00;96920.88;5004627;28;20048;-66
2022/01/31 01:27:14;;;;;;;15.35;6.65;;;;;;;-0.55;100.00;96925.00;5001334;28;20384;-66
2022/01/31 01:29:40;;;;;;;12.57;6.57;;;;;;;-0.58;100.00;96923.69;5005263;28;20074;-66
2022/01/31 01:32:06;;;;;;;8.85;5.55;;;;;;;-0.35;100.00;96926.63;4998197;28;20129;-62
2022/01/31 01:34:33;;;;;;;13.27;6.53;;;;;;;-0.32;100.00;96926.06;5002532;28;20229;-66
2022/01/31 01:37:00;;;;;;;16.23;5.50;;;;;;;-0.30;100.00;96921.97;4996150;28;20453;-66
2022/01/31 01:39:26;;;;;;;16.88;6.43;;;;;;;-0.17;100.00;96915.06;5000945;28;20045;-64
2022/01/31 01:41:52;;;;;;;12.52;6.53;;;;;;;-0.23;100.00;96910.84;5010853;28;20037;-66
2022/01/31 01:44:17;;;;;;;13.18;6.18;;;;;;;-0.15;100.00;96910.19;5002853;28;20038;-66
2022/01/31 01:46:43;;;;;;;15.68;6.35;;;;;;;-0.01;100.00;96902.97;5005163;28;20068;-66
2022/01/31 01:49:08;;;;;;;13.43;5.30;;;;;;;-0.16;100.00;96889.75;5000928;28;20062;-65
2022/01/31 01:51:34;;;;;;;18.13;8.88;;;;;;;-0.22;100.00;96872.88;5008322;28;20042;-65
2022/01/31 01:53:59;;;;;;;15.63;5.95;;;;;;;-0.29;100.00;96868.94;5007070;28;20066;-66
2022/01/31 01:56:25;;;;;;;13.20;6.35;;;;;;;-0.42;100.00;96863.19;5020175;28;20498;-65
2022/01/31 01:58:50;;;;;;;13.90;6.25;;;;;;;-0.36;100.00;96858.56;5012190;28;20068;-64
2022/01/31 02:01:16;;;;;;;21.30;6.57;;;;;;;-0.43;100.00;96860.81;5000302;28;20034;-68
2022/01/31 02:03:41;;;;;;;16.92;6.85;;;;;;;-0.17;100.00;96857.72;5002166;28;20052;-67
2022/01/31 02:06:08;;;;;;;14.00;6.28;;;;;;;-0.06;100.00;96856.47;4998269;28;20054;-66
2022/01/31 02:08:41;;;;;;;11.73;5.65;;;;;;;0.04;100.00;96875.16;5008437;28;20050;-66
2022/01/31 02:11:09;;;;;;;16.70;6.90;;;;;;;0.34;100.00;96867.66;4999596;28;20558;-65
2022/01/31 02:13:36;;;;;;;14.55;6.63;;;;;;;0.41;100.00;96859.97;5006391;28;20045;-66
2022/01/31 02:16:04;;;;;;;13.55;6.03;;;;;;;0.29;100.00;96847.00;5002748;28;20062;-66
2022/01/31 02:18:30;;;;;;;11.45;6.20;;;;;;;0.27;100.00;96824.13;4998631;28;20108;-66
2022/01/31 02:20:56;;;;;;;15.60;6.80;;;;;;;0.17;100.00;96823.22;5003287;28;20084;-67
2022/01/31 02:23:22;;;;;;;19.67;6.40;;;;;;;0.24;100.00;96809.38;5005510;28;20439;-66
2022/01/31 02:26:01;;;;;;;16.42;6.78;;;;;;;0.08;100.00;96803.44;5008590;28;20071;-66
2022/01/31 02:28:29;;;;;;;14.52;6.90;;;;;;;0.05;100.00;96814.00;5005846;28;20046;-66
2022/01/31 02:30:55;;;;;;;16.83;7.85;;;;;;;-0.04;100.00;96813.88;5012857;28;20045;-67
2022/01/31 02:33:21;;;;;;;14.07;6.78;;;;;;;0.05;100.00;96809.41;4992012;28;20060;-66
2022/01/31 02:35:53;;;;;;;14.93;6.20;;;;;;;0.32;100.00;96795.19;5009461;28;20557;-66
2022/01/31 02:38:19;;;;;;;19.48;6.82;;;;;;;0.30;100.00;96796.59;5001724;28;20053;-66
2022/01/31 02:40:45;;;;;;;16.92;6.50;;;;;;;0.11;100.00;96794.78;5001923;28;20037;-65
2022/01/31 02:43:12;;;;;;;12.95;6.93;;;;;;;0.00;100.00;96790.69;5002629;28;20535;-66
2022/01/31 02:45:38;;;;;;;19.90;6.72;;;;;;;0.04;100.00;96788.16;5015233;28;20046;-67
2022/01/31 02:48:04;;;;;;;14.60;6.32;;;;;;;0.13;100.00;96779.13;5006025;28;20045;-63
2022/01/31 02:50:30;;;;;;;18.75;7.32;;;;;;;0.19;100.00;96782.53;5016626;28;20049;-66
2022/01/31 02:55:42;;;;;;;15.43;6.93;;;;;;;0.40;100.00;96768.66;5011542;28;20048;-67
2022/01/31 02:58:08;;;;;;;12.20;5.55;;;;;;;0.57;100.00;96766.97;5005331;28;20325;-64
2022/01/31 03:00:35;;;;;;;14.70;6.38;;;;;;;0.53;100.00;96757.09;5011688;28;20506;-67
2022/01/31 03:03:01;;;;;;;20.27;6.68;;;;;;;0.54;100.00;96753.28;5008229;28;20054;-66
2022/01/31 03:05:26;;;;;;;14.23;6.00;;;;;;;0.67;100.00;96751.72;5013876;28;20056;-66
2022/01/31 03:07:52;;;;;;;17.13;6.63;;;;;;;0.72;100.00;96760.50;5024358;28;20068;-66
2022/01/31 03:10:17;;;;;;;18.08;6.70;;;;;;;0.90;100.00;96742.59;5003850;28;20108;-65
2022/01/31 03:12:43;;;;;;;14.07;7.10;;;;;;;0.85;100.00;96741.91;5015289;28;20034;-67
2022/01/31 03:15:09;;;;;;;14.55;6.03;;;;;;;0.86;100.00;96738.09;5010485;28;20041;-67
2022/01/31 03:17:35;;;;;;;15.52;6.03;;;;;;;0.88;100.00;96738.59;5020075;28;20037;-67
2022/01/31 03:20:00;;;;;;;15.13;6.25;;;;;;;0.90;100.00;96733.69;5006848;28;20042;-66
2022/01/31 03:22:25;;;;;;;18.27;6.30;;;;;;;0.95;100.00;96730.88;5004312;28;20056;-67
2022/01/31 03:24:51;;;;;;;22.45;6.63;;;;;;;1.06;100.00;96731.44;5017193;28;20636;-66
2022/01/31 03:27:16;;;;;;;12.73;5.70;;;;;;;1.02;100.00;96738.56;5005098;28;20052;-66
2022/01/31 03:29:42;;;;;;;15.43;6.45;;;;;;;1.10;100.00;96738.63;5011484;28;20511;-66
2022/01/31 03:32:08;;;;;;;12.48;5.97;;;;;;;1.24;100.00;96740.50;5014612;22;20049;-66
2022/01/31 03:34:34;;;;;;;16.67;5.57;;;;;;;1.33;100.00;96736.78;5011741;28;20052;-67
2022/01/31 03:37:00;;;;;;;13.90;5.10;;;;;;;1.43;100.00;96733.03;5020969;28;20041;-67
2022/01/31 03:39:25;;;;;;;18.40;6.93;;;;;;;1.59;100.00;96721.88;5014694;28;20042;-67
2022/01/31 03:41:51;;;;;;;13.30;4.50;;;;;;;1.52;100.00;96714.19;5022841;28;20519;-66
2022/01/31 03:44:16;;;;;;;12.35;3.92;;;;;;;1.46;100.00;96713.53;4988647;28;20099;-66
2022/01/31 03:46:41;;;;;;;12.48;4.53;;;;;;;1.56;100.00;96708.97;5009907;28;20042;-65
2022/01/31 03:49:07;;;;;;;13.80;4.22;;;;;;;1.61;100.00;96714.25;5008601;28;20076;-65
2022/01/31 03:51:32;;;;;;;14.45;4.03;;;;;;;1.64;100.00;96719.84;5014088;28;20041;-67
2022/01/31 03:53:58;;;;;;;16.60;3.90;;;;;;;1.65;100.00;96724.13;4999560;28;20132;-66
2022/01/31 03:56:23;;;;;;;11.25;3.78;;;;;;;1.83;100.00;96702.63;4990670;28;20724;-65
2022/01/31 03:58:49;;;;;;;7.43;3.58;;;;;;;1.84;100.00;96678.00;5002675;28;20037;-66
2022/01/31 04:01:14;;;;;;;9.65;3.63;;;;;;;1.94;100.00;96678.84;5002026;28;20613;-66
2022/01/31 04:03:39;;;;;;;13.18;4.00;;;;;;;1.86;100.00;96672.31;5023188;28;20092;-65
2022/01/31 04:06:05;;;;;;;12.45;3.55;;;;;;;2.02;99.74;96661.91;5016749;28;20444;-65
2022/01/31 04:08:31;;;;;;;9.82;3.22;;;;;;;1.93;99.90;96656.44;5016133;28;20065;-66
2022/01/31 04:10:56;;;;;;;9.40;3.72;;;;;;;1.82;100.00;96652.41;5014224;28;20095;-66
2022/01/31 04:13:22;;;;;;;11.43;3.75;;;;;;;1.90;100.00;96654.38;4995885;28;20060;-65
2022/01/31 04:15:47;;;;;;;10.32;3.78;;;;;;;1.76;100.00;96653.66;5002163;28;20133;-65
2022/01/31 04:18:13;;;;;;;11.38;3.85;;;;;;;1.72;100.00;96656.97;4996035;28;20100;-64
2022/01/31 04:20:38;;;;;;;20.38;3.50;;;;;;;1.79;100.00;96664.63;5009663;28;20037;-65
2022/01/31 04:23:14;;;;;;;9.20;3.70;;;;;;;1.84;100.00;96653.72;4994404;28;20100;-64
2022/01/31 04:28:32;;;;;;;9.82;3.55;;;;;;;2.01;99.01;96642.16;5001179;28;20497;-65
2022/01/31 04:31:09;;;;;;;10.40;3.97;;;;;;;2.07;97.41;96623.91;5003900;28;20053;-64
2022/01/31 04:33:34;;;;;;;8.52;2.97;;;;;;;2.00;98.46;96607.34;5006288;28;20410;-64
2022/01/31 04:36:00;;;;;;;8.10;2.88;;;;;;;2.05;98.33;96604.50;5009230;28;20049;-64
2022/01/31 04:38:25;;;;;;;10.65;2.97;;;;;;;2.06;98.14;96606.13;5000691;28;20422;-65
2022/01/31 04:40:51;;;;;;;17.15;4.15;;;;;;;2.13;97.40;96587.53;5016660;28;20037;-66
2022/01/31 04:43:16;;;;;;;12.02;3.35;;;;;;;2.13;96.82;96589.47;5022789;28;20065;-66
2022/01/31 04:45:49;;;;;;;13.55;3.65;;;;;;;2.07;96.87;96600.41;5002579;28;20046;-65
2022/01/31 04:48:15;;;;;;;7.00;3.08;;;;;;;2.05;97.48;96591.00;4997592;28;20041;-64
2022/01/31 04:50:42;;;;;;;9.73;3.03;;;;;;;2.16;97.29;96583.41;4997704;28;20041;-67
2022/01/31 04:53:07;;;;;;;8.85;3.30;;;;;;;2.13;96.86;96579.44;4994625;28;20046;-64
2022/01/31 04:55:33;;;;;;;10.77;3.10;;;;;;;2.16;97.40;96597.72;5004485;28;20108;-67
2022/01/31 04:57:59;;;;;;;15.60;3.00;;;;;;;2.17;97.08;96585.00;5005401;28;20136;-67
2022/01/31 05:00:25;;;;;;;11.68;3.47;;;;;;;2.30;96.70;96584.06;4996201;28;20120;-66
2022/01/31 05:02:54;;;;;;;11.33;3.57;;;;;;;2.27;96.13;96580.09;5013509;28;20128;-67
2022/01/31 05:05:20;;;;;;;10.25;2.50;;;;;;;2.29;96.09;96568.97;4991947;28;20404;-66
2022/01/31 05:07:46;;;;;;;8.60;2.90;;;;;;;2.24;96.66;96561.03;5007591;28;20355;-68
2022/01/31 05:10:12;;;;;;;12.77;2.92;;;;;;;2.31;95.45;96549.75;5002478;28;20068;-67
2022/01/31 05:12:37;;;;;;;11.73;3.13;;;;;;;2.33;95.36;96558.34;4999777;28;20414;-67
2022/01/31 05:15:04;;;;;;;13.93;2.75;;;;;;;2.32;96.33;96554.81;4990649;28;20410;-64
2022/01/31 05:17:30;;;;;;;9.98;3.03;;;;;;;2.38;95.85;96548.16;5003752;28;20192;-66
2022/01/31 05:19:55;;;;;;;8.88;2.72;;;;;;;2.47;95.12;96538.13;5013079;28;20518;-66
2022/01/31 05:22:21;;;;;;;7.45;2.60;;;;;;;2.42;95.52;96546.41;4990997;28;20574;-65
2022/01/31 05:24:46;;;;;;;8.10;3.08;;;;;;;2.42;95.25;96535.59;5015276;28;20128;-66
2022/01/31 05:27:13;;;;;;;13.75;3.72;;;;;;;2.38;95.51;96526.53;5002468;28;20034;-67
2022/01/31 05:29:38;;;;;;;11.07;3.50;;;;;;;2.45;94.99;96532.25;5006607;28;20405;-67
2022/01/31 05:32:04;;;;;;;12.25;3.20;;;;;;;2.53;94.84;96532.56;5011106;28;20041;-63
2022/01/31 05:34:30;;;;;;;12.48;3.60;;;;;;;2.50;94.77;96528.59;5009816;28;20045;-67
2022/01/31 05:36:56;;;;;;;13.98;3.30;;;;;;;2.56;95.01;96516.50;5006654;28;20041;-65
2022/01/31 05:39:25;;;;;;;7.95;2.78;;;;;;;2.61;94.60;96516.34;5003791;28;20042;-66
2022/01/31 05:41:52;;;;;;;9.25;3.30;;;;;;;2.59;94.89;96501.56;5018719;28;20038;-66
2022/01/31 05:44:19;;;;;;;9.38;3.10;;;;;;;2.65;94.27;96492.19;4998762;28;20045;-66
2022/01/31 05:46:44;;;;;;;9.80;3.00;;;;;;;2.72;94.14;96497.06;5008298;28;20042;-65
2022/01/31 05:49:10;;;;;;;9.98;3.00;;;;;;;2.72;93.49;96486.25;5012168;28;20419;-67
2022/01/31 05:52:01;;;;;;;16.17;3.35;;;;;;;2.70;93.66;96478.47;5011502;28;20474;-64
2022/01/31 05:54:28;;;;;;;11.90;3.70;;;;;;;2.75;93.26;96478.31;4999983;28;20053;-65
2022/01/31 05:56:57;;;;;;;7.43;3.15;;;;;;;2.75;93.76;96477.50;4994120;28;20508;-65
2022/01/31 05:59:23;;;;;;;11.40;3.00;;;;;;;2.82;93.05;96478.59;4993796;28;20891;-65
2022/01/31 06:01:49;;;;;;;6.82;2.55;;;;;;;2.87;91.96;96481.16;5002230;28;20053;-66
2022/01/31 06:04:14;;;;;;;9.18;3.42;;;;;;;2.78;92.33;96474.19;4994416;28;20434;-66
2022/01/31 06:06:40;;;;;;;5.15;2.42;;;;;;;2.83;92.32;96450.44;5011831;28;20534;-67
2022/01/31 06:09:06;;;;;;;5.97;2.67;;;;;;;2.85;92.86;96472.56;4998171;28;20038;-65
2022/01/31 06:11:33;;;;;;;14.80;2.85;;;;;;;2.86;92.79;96470.66;5011733;28;20380;-65
2022/01/31 06:14:01;;;;;;;10.00;3.45;;;;;;;2.89;92.24;96477.34;4997819;28;20049;-66
2022/01/31 06:16:30;;;;;;;8.40;2.90;;;;;;;2.82;92.62;96483.22;5003031;28;20065;-66
2022/01/31 06:18:56;;;;;;;12.40;3.60;;;;;;;2.84;92.88;96475.59;5008127;28;20410;-66
2022/01/31 06:21:22;;;;;;;12.20;3.03;;;;;;;2.90;92.86;96474.31;5004218;28;20290;-64
2022/01/31 06:23:47;;;;;;;6.88;3.50;;;;;;;2.87;93.01;96469.53;5012378;28;20053;-66
2022/01/31 06:26:13;;;;;;;9.20;3.10;;;;;;;2.91;92.13;96472.41;4997598;28;20038;-64
2022/01/31 06:28:39;;;;;;;11.90;3.30;;;;;;;3.05;91.45;96475.69;5004023;28;20069;-65
2022/01/31 06:31:06;;;;;;;11.15;3.03;;;;;;;3.08;90.64;96458.00;5008260;28;20473;-64
2022/01/31 06:33:32;;;;;;;6.63;2.65;;;;;;;3.06;91.16;96453.72;4992732;28;20045;-66
2022/01/31 06:35:59;;;;;;;5.63;3.15;;;;;;;3.03;90.77;96454.38;5019293;28;20041;-66
2022/01/31 06:38:25;;;;;;;8.60;2.85;;;;;;;3.13;90.20;96453.22;5003745;28;20256;-66
2022/01/31 06:40:50;;;;;;;11.88;2.90;;;;;;;3.15;90.05;96456.41;5012439;28;20041;-65
2022/01/31 06:43:16;;;;;;;11.50;2.47;;;;;;;3.12;90.71;96457.06;5002617;28;20053;-66
2022/01/31 06:45:41;;;;;;;7.15;2.92;;;;;;;3.24;89.06;96421.16;5002130;28;20137;-65
2022/01/31 06:48:07;;;;;;;6.30;2.60;;;;;;;3.29;88.54;96426.41;4985632;28;20402;-65
2022/01/31 06:50:33;;;;;;;6.20;2.58;;;;;;;3.34;87.63;96411.91;5016479;28;20046;-65
2022/01/31 06:53:01;;;;;;;9.25;3.13;;;;;;;3.42;86.25;96414.56;5009675;28;20057;-67
2022/01/31 06:55:29;;;;;;;5.30;2.70;;;;;;;3.42;87.17;96427.28;5008675;28;20053;-65
2022/01/31 06:57:54;;;;;;;9.23;3.10;;;;;;;3.42;86.80;96419.97;5015512;28;20111;-66
2022/01/31 07:00:20;;;;;;;7.45;3.08;;;;;;;3.47;85.96;96410.88;5000280;28;20045;-65
2022/01/31 07:02:47;;;;;;;7.15;2.78;;;;;;;3.50;85.68;96431.09;5003193;28;20057;-65
2022/01/31 07:05:13;;;;;;;6.38;3.20;;;;;;;3.48;85.75;96415.16;5007151;28;20049;-65
2022/01/31 07:07:39;;;;;;;8.93;2.65;;;;;;;3.55;85.50;96436.31;5011726;28;20035;-64
2022/01/31 07:10:06;;;;;;;7.50;2.80;;;;;;;3.48;85.29;96428.72;5000382;28;20045;-63
2022/01/31 07:12:37;;;;;;;10.35;2.95;;;;;;;3.54;84.87;96426.59;5002432;28;20045;-65
2022/01/31 07:15:07;;;;;;;6.65;2.60;;;;;;;3.53;85.69;96423.09;5002752;28;20105;-62
2022/01/31 07:17:35;;;;;;;7.93;3.03;;;;;;;3.55;85.39;96425.50;4995845;28;20048;-65
2022/01/31 07:20:09;;;;;;;5.00;2.85;;;;;;;3.56;85.48;96416.22;5000657;28;20049;-65
2022/01/31 07:22:37;;;;;;;13.90;3.22;;;;;;;3.56;85.54;96411.59;4991172;28;20056;-64
2022/01/31 07:25:08;;;;;;;9.18;3.20;;;;;;;3.59;85.48;96402.81;5007352;28;20046;-65
2022/01/31 07:27:34;;;;;;;4.57;2.60;;;;;;;3.51;85.33;96400.97;4997290;28;20161;-65
2022/01/31 07:30:00;;;;;;;7.22;3.10;;;;;;;3.56;85.09;96391.84;5000622;28;20122;-65
2022/01/31 07:32:28;;;;;;;10.85;3.55;;;;;;;3.54;85.91;96386.78;4983019;28;20046;-65
2022/01/31 07:34:55;;;;;;;6.85;2.67;;;;;;;3.53;84.98;96390.63;4995155;28;20065;-65
2022/01/31 07:37:25;;;;;;;7.55;2.97;;;;;;;3.51;84.96;96376.63;4986547;28;21394;-67
2022/01/31 07:39:52;;;;;;;12.30;2.90;;;;;;;3.52;85.75;96386.31;5000019;28;20492;-66
2022/01/31 07:42:18;;;;;;;6.32;2.63;;;;;;;3.54;85.31;96385.97;4988467;28;20099;-68
2022/01/31 07:44:44;;;;;;;6.30;2.40;;;;;;;3.62;85.18;96374.31;4997573;28;20124;-66
2022/01/31 07:47:10;;;;;;;7.63;2.83;;;;;;;3.54;85.65;96383.28;4989269;28;20045;-67
2022/01/31 07:49:36;;;;;;;7.55;2.88;;;;;;;3.53;85.68;96382.50;4989136;28;20068;-65
2022/01/31 07:52:02;;;;;;;7.00;2.63;;;;;;;3.47;85.87;96375.66;4997749;28;20057;-65
2022/01/31 07:54:28;;;;;;;5.85;3.08;;;;;;;3.52;86.20;96380.09;4985174;28;20057;-66
2022/01/31 07:56:56;;;;;;;11.82;3.15;;;;;;;3.59;85.20;96369.53;4995199;28;20069;-67
2022/01/31 07:59:21;;;;;;;9.80;2.75;;;;;;;3.56;86.19;96362.84;4993306;28;20038;-66
2022/01/31 08:01:47;;;;;;;7.45;2.90;;;;;;;3.54;86.36;96351.56;4993694;28;20806;-66
2022/01/31 08:04:12;;;;;;;8.88;2.83;;;;;;;3.56;86.26;96337.69;4985740;28;20045;-66
2022/01/31 08:06:38;;;;;;;9.52;2.80;;;;;;;3.54;86.31;96356.19;4995316;28;20038;-65
2022/01/31 08:09:04;;;;;;;5.07;2.47;;;;;;;3.63;86.80;96333.34;4992352;28;20157;-64
2022/01/31 08:11:32;;;;;;;11.05;2.92;;;;;;;3.54;88.63;96350.78;4992691;28;20045;-67
2022/01/31 08:14:06;;;;;;;4.20;2.72;;;;;;;3.52;89.35;96345.69;4997126;28;20055;-67
2022/01/31 08:16:36;;;;;;;6.47;3.33;;;;;;;3.46;90.42;96344.31;4992827;28;20046;-66
2022/01/31 08:19:06;;;;;;;4.97;2.88;;;;;;;3.48;91.26;96346.69;4996748;28;20054;-64
2022/01/31 08:21:33;;;;;;;9.25;4.30;;;;;;;3.47;91.96;96342.38;5004974;28;20161;-65
2022/01/31 08:23:59;;;;;;;8.60;2.92;;;;;;;3.52;91.76;96332.16;4997962;28;20054;-65
2022/01/31 08:26:24;;;;;;;6.28;2.85;;;;;;;3.55;91.96;96336.13;4994743;28;20056;-66
2022/01/31 08:28:56;;;;;;;6.40;2.50;;;;;;;3.39;94.07;96334.00;4996200;28;20041;-66
2022/01/31 08:31:28;;;;;;;6.13;2.47;;;;;;;3.38;95.20;96335.09;4992013;28;20360;-65
2022/01/31 08:36:26;;;;;;;9.40;3.05;;;;;;;3.45;96.13;96318.34;5000525;28;20061;-66
2022/01/31 08:38:52;;;;;;;5.85;2.78;;;;;;;3.48;95.52;96314.97;5000660;28;20041;-66
2022/01/31 08:41:18;;;;;;;6.68;2.72;;;;;;;3.44;96.01;96328.38;4994818;28;20426;-65
2022/01/31 08:43:44;;;;;;;5.30;2.70;;;;;;;3.43;95.36;96317.88;4997368;28;20172;-66
2022/01/31 08:46:12;;;;;;;5.38;2.83;;;;;;;3.44;96.00;96308.66;4993018;28;20050;-66
2022/01/31 08:48:38;;;;;;;6.25;3.20;;;;;;;3.40;96.12;96288.75;4996598;28;20041;-67
2022/01/31 08:51:07;;;;;;;6.90;2.83;;;;;;;3.42;97.66;96292.72;4995272;28;20038;-64
2022/01/31 08:53:33;;;;;;;5.03;2.85;;;;;;;3.37;98.63;96281.31;4991914;28;20340;-67
2022/01/31 08:56:03;;;;;;;10.85;3.13;;;;;;;3.31;100.00;96302.34;5003089;28;20077;-67
2022/01/31 08:58:29;;;;;;;6.35;2.90;;;;;;;3.30;100.00;96292.66;4990619;28;20042;-66
2022/01/31 09:01:04;;;;;;;10.32;3.55;;;;;;;3.27;100.00;96295.22;4997003;28;20046;-66
2022/01/31 09:06:08;;;;;;;7.45;3.20;;;;;;;3.12;100.00;96294.69;4991045;28;20072;-64
2022/01/31 09:08:34;;;;;;;9.23;3.60;;;;;;;3.03;100.00;96283.91;5000953;28;20112;-66
2022/01/31 09:11:00;;;;;;;6.53;3.20;;;;;;;2.97;100.00;96260.06;5003580;28;20133;-67
2022/01/31 09:13:25;;;;;;;6.05;3.03;;;;;;;2.91;100.00;96283.03;4994497;28;20540;-66
2022/01/31 09:15:51;;;;;;;6.22;2.95;;;;;;;2.87;100.00;96291.00;4999176;28;20072;-65
2022/01/31 09:18:17;;;;;;;2.83;2.35;;;;;;;2.79;100.00;96279.13;4991991;28;20494;-66
2022/01/31 09:20:42;;;;;;;5.47;3.00;;;;;;;2.81;100.00;96284.19;4985898;28;20065;-68
2022/01/31 09:23:08;;;;;;;7.78;3.70;;;;;;;2.74;100.00;96276.59;4994231;28;20045;-66
2022/01/31 09:25:34;;;;;;;7.57;3.22;;;;;;;2.66;100.00;96278.22;4997445;28;20049;-66
2022/01/31 09:28:02;;;;;;;6.72;2.97;;;;;;;2.60;100.00;96284.16;4998942;28;20042;-67
2022/01/31 09:30:28;;;;;;;6.25;3.05;;;;;;;2.57;100.00;96279.38;4996917;28;20675;-66
2022/01/31 09:32:57;;;;;;;5.70;3.10;;;;;;;2.57;100.00;96282.88;5004745;28;20441;-65
2022/01/31 09:35:24;;;;;;;4.65;3.22;;;;;;;2.49;100.00;96294.53;4993201;28;20135;-65
2022/01/31 09:37:50;;;;;;;6.38;3.25;;;;;;;2.49;100.00;96281.00;4992757;28;20646;-65
2022/01/31 09:40:21;;;;;;;8.75;3.33;;;;;;;2.59;100.00;96285.25;4992793;28;20048;-66
2022/01/31 09:43:25;;;;;;;8.27;3.60;;;;;;;2.75;100.00;96290.91;4996123;28;20572;-65
2022/01/31 09:46:17;;;;;;;6.22;3.33;;;;;;;2.66;100.00;96272.78;5002206;28;20053;-64
2022/01/31 09:48:40;;;;;;;5.80;3.22;;;;;;;2.62;100.00;96295.41;5000086;28;20578;-64
2022/01/31 09:51:18;;;;;;;7.15;3.67;;;;;;;2.69;100.00;96293.00;4986898;28;20058;-65
2022/01/31 09:53:48;;;;;;;7.43;3.50;;;;;;;2.71;100.00;96292.69;4995921;28;20046;-65
2022/01/31 09:56:14;;;;;;;;;;;;;;;2.58;100.00;96278.28;4997599;28;20129;-66
2022/01/31 09:58:41;;;;;;;4.85;2.42;;;;;;;2.51;100.00;96297.69;4998112;28;19917;-66
2022/01/31 10:01:17;;;;;;;6.63;2.50;;;;;;;2.45;100.00;96285.47;4991896;28;20041;-63
2022/01/31 10:03:47;;;;;;;6.68;2.72;;;;;;;2.48;100.00;96288.34;4993520;28;20725;-66
2022/01/31 10:06:34;;;;;;;4.20;3.05;;;;;;;2.36;100.00;96282.00;5003155;28;20046;-66
2022/01/31 10:09:07;;;;;;;5.30;2.70;;;;;;;2.43;100.00;96287.69;4999017;28;20045;-65
2022/01/31 10:11:55;;;;;;;5.05;2.60;;;;;;;2.42;100.00;96281.50;4998502;28;20046;-65
2022/01/31 10:17:29;;;;;;;3.70;2.35;;;;;;;2.41;100.00;96279.94;4995834;28;20046;-64
2022/01/31 10:20:04;;;;;;;3.47;2.22;;;;;;;2.53;100.00;96281.94;5002626;28;20535;-64
2022/01/31 10:22:32;;;;;;;6.15;2.78;;;;;;;2.56;100.00;96283.22;5005951;28;20763;-66
2022/01/31 10:25:02;;;;;;;3.20;2.20;;;;;;;2.59;100.00;96280.66;5003231;28;20046;-64
2022/01/31 10:27:34;;;;;;;4.75;2.10;;;;;;;2.57;100.00;96255.81;4997331;28;20046;-64
2022/01/31 10:30:15;;;;;;;10.32;3.10;;;;;;;2.59;100.00;96299.59;4998596;28;20826;-64
2022/01/31 10:32:46;;;;;;;3.97;2.33;;;;;;;2.42;100.00;96303.13;4994604;28;20698;-64
2022/01/31 10:35:20;;;;;;;4.50;2.10;;;;;;;2.28;100.00;96286.31;4994296;28;20081;-65
2022/01/31 10:37:48;;;;;;;4.63;1.90;;;;;;;2.20;100.00;96298.75;4998979;28;20045;-65
2022/01/31 10:54:36;;;;;;;3.30;2.45;;;;;;;1.66;100.00;96319.97;4992196;28;20053;-65
2022/01/31 10:57:12;;;;;;;5.00;3.03;;;;;;;1.59;100.00;96320.44;5000367;28;20050;-65
2022/01/31 10:59:43;;;;;;;4.15;2.50;;;;;;;1.65;100.00;96319.16;4997973;28;20045;-65
2022/01/31 11:02:21;;;;;;;3.42;2.30;;;;;;;1.85;100.00;96331.19;4992708;28;20476;-65
2022/01/31 11:04:47;;;;;;;6.10;2.35;;;;;;;1.88;100.00;96329.78;5002687;28;20046;-66
2022/01/31 11:07:16;;;;;;;4.35;2.72;;;;;;;2.01;100.00;96330.72;4995727;28;20406;-65
2022/01/31 11:09:45;;;;;;;4.43;2.25;;;;;;;1.84;100.00;96321.53;5000973;28;20127;-66
2022/01/31 11:12:11;;;;;;;3.83;2.33;;;;;;;1.88;100.00;96313.59;4999442;28;20038;-66
2022/01/31 11:14:39;;;;;;;3.10;2.00;;;;;;;1.88;100.00;96316.28;5000267;28;20076;-65
2022/01/31 11:17:10;;;;;;;5.75;2.40;;;;;;;1.85;100.00;96306.91;4995837;28;20487;-65
2022/01/31 11:19:37;;;;;;;3.63;2.95;;;;;;;1.61;100.00;96317.41;4996110;28;20056;-66
2022/01/31 11:22:07;;;;;;;6.43;3.05;;;;;;;1.59;100.00;96308.84;4998229;28;20046;-65
2022/01/31 11:24:44;;;;;;;4.22;3.05;;;;;;;1.83;100.00;96294.84;4999900;28;20571;-66
2022/01/31 11:27:16;;;;;;;2.97;2.38;;;;;;;2.12;100.00;96275.22;4993823;28;20084;-66
2022/01/31 11:29:53;;;;;;;4.28;2.17;;;;;;;2.50;100.00;96290.69;5000004;28;20046;-65
2022/01/31 11:32:19;;;;;;;4.25;2.95;;;;;;;2.88;100.00;96289.88;4991641;28;20572;-66
2022/01/31 11:34:45;;;;;;;4.50;2.92;;;;;;;3.21;100.00;96281.88;5004995;28;20406;-65
2022/01/31 11:37:17;;;;;;;3.85;2.60;;;;;;;3.56;100.00;96278.13;4991883;28;20049;-66
2022/01/31 11:39:53;;;;;;;3.13;1.90;;;;;;;3.78;100.00;96280.50;4997104;28;20153;-66
2022/01/31 11:42:20;;;;;;;3.53;1.95;;;;;;;3.76;100.00;96276.53;4991726;28;20464;-65
2022/01/31 11:44:57;;;;;;;2.47;1.55;;;;;;;3.82;100.00;96276.00;4999972;28;20376;-65
2022/01/31 11:47:24;;;;;;;2.63;1.77;;;;;;;4.24;100.00;96268.88;4994070;28;20570;-66
2022/01/31 11:49:57;;;;;;;1.50;1.35;;;;;;;4.09;100.00;96268.41;4999562;28;20057;-66
2022/01/31 11:52:24;;;;;;;7.35;3.92;;;;;;;4.53;100.00;96265.19;4994335;28;20517;-65
2022/01/31 11:54:56;;;;;;;4.63;1.48;;;;;;;4.72;100.00;96262.72;5013643;28;20053;-66
2022/01/31 11:57:34;;;;;;;2.30;1.20;;;;;;;5.45;100.00;96258.31;5003399;28;20919;-66
2022/01/31 12:00:06;;;;;;;2.85;1.23;;;;;;;5.82;100.00;96235.69;5009575;28;20052;-66
2022/01/31 12:02:39;;;;;;;2.05;1.10;;;;;;;5.80;96.41;96235.22;4996102;28;20096;-65
2022/01/31 12:05:08;;;;;;;3.10;0.93;;;;;;;6.59;96.80;96253.59;4995579;28;20815;-66